createdAt,value
2019-05-23T00:00:29.526Z,54.37
2019-05-23T00:01:29.523Z,54.66
2019-05-23T00:02:29.515Z,53.80
2019-05-23T00:03:29.511Z,53.89
2019-05-23T00:04:29.507Z,53.99
2019-05-23T00:05:29.507Z,54.18
2019-05-23T00:06:29.500Z,53.23
2019-05-23T00:07:29.496Z,53.04
2019-05-23T00:08:29.494Z,53.13
2019-05-23T00:09:29.491Z,53.80
2019-05-23T00:10:29.508Z,53.96
2019-05-23T00:11:29.484Z,53.32
2019-05-23T00:12:29.478Z,53.32
2019-05-23T00:13:29.475Z,54.25
2019-05-23T00:14:29.472Z,53.67
2019-05-23T00:15:29.467Z,53.30
2019-05-23T00:16:29.464Z,53.67
2019-05-23T00:17:29.460Z,52.92
2019-05-23T00:18:29.456Z,52.72
2019-05-23T00:19:29.452Z,51.97
2019-05-23T00:20:29.449Z,52.25
2019-05-23T00:21:29.449Z,50.54
2019-05-23T00:22:29.444Z,50.35
2019-05-23T00:23:29.437Z,51.20
2019-05-23T00:24:29.433Z,51.10
2019-05-23T00:25:29.430Z,52.15
2019-05-23T00:26:29.429Z,51.87
2019-05-23T00:27:29.422Z,52.06
2019-05-23T00:28:29.424Z,52.06
2019-05-23T00:29:29.417Z,52.15
2019-05-23T00:30:29.410Z,51.87
2019-05-23T00:31:29.410Z,52.15
2019-05-23T00:32:29.404Z,52.25
2019-05-23T00:33:29.398Z,51.20
2019-05-23T00:34:29.408Z,50.73
2019-05-23T00:35:29.391Z,50.54
2019-05-23T00:36:29.386Z,50.35
2019-05-23T00:37:29.382Z,51.01
2019-05-23T00:38:29.381Z,51.08
2019-05-23T00:39:29.376Z,51.46
2019-05-23T00:40:29.371Z,50.99
2019-05-23T00:41:29.367Z,50.42
2019-05-23T00:42:29.373Z,49.75
2019-05-23T00:43:29.363Z,49.27
2019-05-23T00:44:29.354Z,48.32
2019-05-23T00:45:29.350Z,47.85
2019-05-23T00:46:29.347Z,47.85
2019-05-23T00:47:29.348Z,47.56
2019-05-23T00:48:29.339Z,47.09
2019-05-23T00:49:29.334Z,46.61
2019-05-23T00:50:29.329Z,46.61
2019-05-23T00:51:29.327Z,47.28
2019-05-23T00:52:29.320Z,47.94
2019-05-23T00:53:29.318Z,49.37
2019-05-23T00:54:29.311Z,49.46
2019-05-23T00:55:29.310Z,49.27
2019-05-23T00:56:29.307Z,48.42
2019-05-23T00:57:29.301Z,47.75
2019-05-23T00:58:29.299Z,47.18
2019-05-23T00:59:29.293Z,47.18
2019-05-23T01:00:29.289Z,47.18
2019-05-23T01:01:29.284Z,47.18
2019-05-23T01:02:29.282Z,47.66
2019-05-23T01:03:29.390Z,48.03
2019-05-23T01:04:29.271Z,48.03
2019-05-23T01:05:29.266Z,47.75
2019-05-23T01:06:29.261Z,47.94
2019-05-23T01:07:29.315Z,48.13
2019-05-23T01:08:29.255Z,48.71
2019-05-23T01:09:29.249Z,49.08
2019-05-23T01:10:29.243Z,49.46
2019-05-23T01:11:29.243Z,50.04
2019-05-23T01:12:29.234Z,50.79
2019-05-23T01:13:29.233Z,50.04
2019-05-23T01:14:29.228Z,50.04
2019-05-23T01:15:29.226Z,49.18
2019-05-23T01:16:29.227Z,48.99
2019-05-23T01:17:29.213Z,49.46
2019-05-23T01:18:29.232Z,49.56
2019-05-23T01:19:29.204Z,49.46
2019-05-23T01:20:29.201Z,50.04
2019-05-23T01:21:29.213Z,49.27
2019-05-23T01:22:29.192Z,48.42
2019-05-23T01:23:29.187Z,48.13
2019-05-23T01:24:29.183Z,48.39
2019-05-23T01:25:29.178Z,49.27
2019-05-23T01:26:29.174Z,49.18
2019-05-23T01:27:29.173Z,49.85
2019-05-23T01:28:29.165Z,49.46
2019-05-23T01:29:37.410Z,49.18
2019-05-23T01:30:29.154Z,49.18
2019-05-23T01:31:29.163Z,49.18
2019-05-23T01:32:29.147Z,49.56
2019-05-23T01:33:29.145Z,49.27
2019-05-23T01:34:29.138Z,48.23
2019-05-23T01:35:29.134Z,48.23
2019-05-23T01:36:29.141Z,47.85
2019-05-23T01:37:29.136Z,47.85
2019-05-23T01:38:29.120Z,47.37
2019-05-23T01:39:29.116Z,47.18
2019-05-23T01:40:29.114Z,46.99
2019-05-23T01:41:29.106Z,46.59
2019-05-23T01:42:29.139Z,47.63
2019-05-23T01:44:42.473Z,47.06
2019-05-23T01:45:42.467Z,46.11
2019-05-23T01:47:45.485Z,44.68
2019-05-23T01:48:42.454Z,44.68
2019-05-23T01:49:42.654Z,45.07
2019-05-23T01:50:42.446Z,44.78
2019-05-23T01:51:42.448Z,45.64
2019-05-23T01:52:42.494Z,46.11
2019-05-23T01:53:42.432Z,46.01
2019-05-23T01:54:42.430Z,45.64
2019-05-23T01:55:42.421Z,45.35
2019-05-23T01:56:42.416Z,44.68
2019-05-23T01:57:42.411Z,44.68
2019-05-23T01:58:42.412Z,44.78
2019-05-23T01:59:42.403Z,44.21
2019-05-23T02:00:42.401Z,43.93
2019-05-23T02:01:42.395Z,43.54
2019-05-23T02:02:42.389Z,43.26
2019-05-23T02:03:42.383Z,42.97
2019-05-23T02:04:42.376Z,42.79
2019-05-23T02:05:42.379Z,42.40
2019-05-23T02:06:42.379Z,41.83
2019-05-23T02:07:42.365Z,42.21
2019-05-23T02:08:42.385Z,43.16
2019-05-23T02:09:42.359Z,42.97
2019-05-23T02:10:42.348Z,42.69
2019-05-23T02:11:42.350Z,42.69
2019-05-23T02:12:42.359Z,42.79
2019-05-23T02:13:42.335Z,42.60
2019-05-23T02:14:42.331Z,42.50
2019-05-23T02:15:42.326Z,42.67
2019-05-23T02:16:42.323Z,42.12
2019-05-23T02:17:42.319Z,41.17
2019-05-23T02:18:42.328Z,41.62
2019-05-23T02:19:42.308Z,42.38
2019-05-23T02:20:42.302Z,42.67
2019-05-23T02:21:42.297Z,42.67
2019-05-23T02:22:42.292Z,41.83
2019-05-23T02:23:42.289Z,41.24
2019-05-23T02:24:42.289Z,41.53
2019-05-23T02:25:42.303Z,40.58
2019-05-23T02:26:42.273Z,40.95
2019-05-23T02:27:42.268Z,40.98
2019-05-23T02:28:42.263Z,40.67
2019-05-23T02:29:42.262Z,40.69
2019-05-23T02:30:42.258Z,40.29
2019-05-23T02:31:42.250Z,40.58
2019-05-23T02:32:42.245Z,40.20
2019-05-23T02:33:42.239Z,40.48
2019-05-23T02:34:42.236Z,40.31
2019-05-23T02:35:42.231Z,39.91
2019-05-23T02:36:42.223Z,40.29
2019-05-23T02:37:42.222Z,39.81
2019-05-23T02:38:42.221Z,40.20
2019-05-23T02:39:42.212Z,40.01
2019-05-23T02:40:42.205Z,38.20
2019-05-23T02:41:42.201Z,37.06
2019-05-23T02:42:42.197Z,35.73
2019-05-23T02:43:42.193Z,34.88
2019-05-23T02:44:42.191Z,33.83
2019-05-23T02:45:42.181Z,33.26
2019-05-23T02:46:42.177Z,32.12
2019-05-23T02:47:42.181Z,32.03
2019-05-23T02:48:42.170Z,32.03
2019-05-23T02:49:42.164Z,32.31
2019-05-23T02:50:42.166Z,32.97
2019-05-23T02:51:42.159Z,33.64
2019-05-23T02:52:42.146Z,33.92
2019-05-23T02:53:42.143Z,34.02
2019-05-23T02:54:42.137Z,33.26
2019-05-23T02:55:42.133Z,32.59
2019-05-23T02:56:42.129Z,31.84
2019-05-23T02:57:42.123Z,31.26
2019-05-23T02:58:42.118Z,30.69
2019-05-23T02:59:42.112Z,30.31
2019-05-23T03:00:53.702Z,30.22
2019-05-23T03:01:42.108Z,30.31
2019-05-23T03:02:42.098Z,30.03
2019-05-23T03:03:42.094Z,30.41
2019-05-23T03:04:42.088Z,30.51
2019-05-23T03:05:42.085Z,30.51
2019-05-23T03:06:42.079Z,30.22
2019-05-23T03:07:42.078Z,30.12
2019-05-23T03:08:42.072Z,29.55
2019-05-23T03:09:42.062Z,29.93
2019-05-23T03:10:42.059Z,29.46
2019-05-23T03:11:42.055Z,29.84
2019-05-23T03:12:42.049Z,30.22
2019-05-23T03:13:42.043Z,29.84
2019-05-23T03:14:42.040Z,29.17
2019-05-23T03:15:42.033Z,28.60
2019-05-23T03:16:42.029Z,27.65
2019-05-23T03:17:42.022Z,27.75
2019-05-23T03:18:42.025Z,27.84
2019-05-23T03:19:42.013Z,27.65
2019-05-23T03:20:42.008Z,27.56
2019-05-23T03:21:42.005Z,27.84
2019-05-23T03:22:42.014Z,27.84
2019-05-23T03:23:41.993Z,27.75
2019-05-23T03:24:41.988Z,27.65
2019-05-23T03:25:41.983Z,27.75
2019-05-23T03:26:41.979Z,28.03
2019-05-23T03:27:41.974Z,28.22
2019-05-23T03:28:41.969Z,28.41
2019-05-23T03:29:41.971Z,28.41
2019-05-23T03:30:41.958Z,27.75
2019-05-23T03:31:41.954Z,27.27
2019-05-23T03:32:41.948Z,26.61
2019-05-23T03:33:41.945Z,26.61
2019-05-23T03:34:41.965Z,26.61
2019-05-23T03:35:41.937Z,27.94
2019-05-23T03:36:41.928Z,28.60
2019-05-23T03:37:41.924Z,27.84
2019-05-23T03:38:41.920Z,27.18
2019-05-23T03:39:41.914Z,26.79
2019-05-23T03:40:41.913Z,24.90
2019-05-23T03:41:41.923Z,23.94
2019-05-23T03:42:41.922Z,22.61
2019-05-23T03:43:41.909Z,20.90
2019-05-23T03:44:41.888Z,20.05
2019-05-23T03:45:41.886Z,19.38
2019-05-23T03:46:41.879Z,18.05
2019-05-23T03:47:41.873Z,16.72
2019-05-23T03:48:41.868Z,16.82
2019-05-23T03:49:41.867Z,16.25
2019-05-23T03:50:41.858Z,15.87
2019-05-23T03:51:41.851Z,15.39
2019-05-23T03:52:41.846Z,15.11
2019-05-23T03:53:41.842Z,15.11
2019-05-23T03:54:41.842Z,13.68
2019-05-23T03:55:41.834Z,13.40
2019-05-23T03:56:41.833Z,12.45
2019-05-23T03:57:41.825Z,12.26
2019-05-23T03:58:41.822Z,12.73
2019-05-23T03:59:41.816Z,12.45
2019-05-23T04:00:41.810Z,11.59
2019-05-23T04:01:48.236Z,11.30
2019-05-23T04:02:41.799Z,11.60
2019-05-23T04:03:41.793Z,11.79
2019-05-23T04:04:41.787Z,11.40
2019-05-23T04:05:41.783Z,10.46
2019-05-23T04:06:41.777Z,10.55
2019-05-23T04:07:41.776Z,10.46
2019-05-23T04:08:41.767Z,10.46
2019-05-23T04:09:41.772Z,10.46
2019-05-23T04:10:41.757Z,10.83
2019-05-23T04:11:41.756Z,11.22
2019-05-23T04:12:41.749Z,12.07
2019-05-23T04:13:41.753Z,12.26
2019-05-23T04:14:41.737Z,12.84
2019-05-23T04:15:41.737Z,12.84
2019-05-23T04:16:41.727Z,12.84
2019-05-23T04:17:41.721Z,12.74
2019-05-23T04:18:41.719Z,11.88
2019-05-23T04:19:41.714Z,11.60
2019-05-23T04:20:41.709Z,11.03
2019-05-23T04:21:41.701Z,10.93
2019-05-23T04:22:41.698Z,10.93
2019-05-23T04:23:41.692Z,10.64
2019-05-23T04:24:41.688Z,11.22
2019-05-23T04:25:41.686Z,11.31
2019-05-23T04:26:41.689Z,11.50
2019-05-23T04:27:41.674Z,10.83
2019-05-23T04:28:41.672Z,10.17
2019-05-23T04:29:41.666Z,10.08
2019-05-23T04:30:41.660Z,9.69
2019-05-23T04:31:41.656Z,9.80
2019-05-23T04:32:41.647Z,10.08
2019-05-23T04:33:41.649Z,10.75
2019-05-23T04:34:41.640Z,11.32
2019-05-23T04:35:41.638Z,12.27
2019-05-23T04:36:41.642Z,12.74
2019-05-23T04:37:41.626Z,12.84
2019-05-23T04:38:41.635Z,13.22
2019-05-23T04:39:41.620Z,11.89
2019-05-23T04:40:41.617Z,10.65
2019-05-23T04:41:41.605Z,10.75
2019-05-23T04:42:41.604Z,10.46
2019-05-23T04:43:41.680Z,9.99
2019-05-23T04:44:44.439Z,8.65
2019-05-23T04:45:41.587Z,8.18
2019-05-23T04:46:41.586Z,7.51
2019-05-23T04:47:41.579Z,6.85
2019-05-23T04:48:41.577Z,6.09
2019-05-23T04:49:41.567Z,5.80
2019-05-23T04:50:41.563Z,6.09
2019-05-23T04:51:41.564Z,6.85
2019-05-23T04:52:41.554Z,7.70
2019-05-23T04:53:41.548Z,8.18
2019-05-23T04:54:41.546Z,7.99
2019-05-23T04:55:41.541Z,7.90
2019-05-23T04:56:41.535Z,7.32
2019-05-23T04:57:41.532Z,7.71
2019-05-23T04:58:41.526Z,7.99
2019-05-23T04:59:41.522Z,7.99
2019-05-23T05:00:41.519Z,8.47
2019-05-23T05:01:41.513Z,8.56
2019-05-23T05:02:41.507Z,8.47
2019-05-23T05:03:41.505Z,7.71
2019-05-23T05:04:41.522Z,8.47
2019-05-23T05:05:41.552Z,9.04
2019-05-23T05:06:41.491Z,10.47
2019-05-23T05:07:41.489Z,10.75
2019-05-23T05:08:41.494Z,10.00
2019-05-23T05:09:41.508Z,7.81
2019-05-23T05:10:41.475Z,6.76
2019-05-23T05:11:41.476Z,8.00
2019-05-23T05:12:41.462Z,7.33
2019-05-23T05:13:41.457Z,12.10
2019-05-23T05:14:41.453Z,17.83
2019-05-23T05:15:41.474Z,25.74
2019-05-23T05:16:41.445Z,29.47
2019-05-23T05:17:41.442Z,37.02
2019-05-23T05:18:41.438Z,37.68
2019-05-23T05:19:41.441Z,40.93
2019-05-23T05:20:41.430Z,44.65
2019-05-23T05:21:41.426Z,45.03
2019-05-23T05:22:41.423Z,43.24
2019-05-23T05:23:41.422Z,44.38
2019-05-23T05:24:41.414Z,43.05
2019-05-23T05:25:41.411Z,42.38
2019-05-23T05:26:41.407Z,44.29
2019-05-23T05:27:41.407Z,44.20
2019-05-23T05:28:41.402Z,45.06
2019-05-23T05:29:41.397Z,44.96
2019-05-23T05:30:41.394Z,43.15
2019-05-23T05:31:41.391Z,42.96
2019-05-23T05:32:45.371Z,43.43
2019-05-23T05:33:41.382Z,43.33
2019-05-23T05:34:41.381Z,44.58
2019-05-23T05:35:41.386Z,43.15
2019-05-23T05:36:41.378Z,44.98
2019-05-23T05:37:41.372Z,43.43
2019-05-23T05:38:41.367Z,50.59
2019-05-23T05:39:41.366Z,53.84
2019-05-23T05:40:41.364Z,46.30
2019-05-23T05:41:41.360Z,44.96
2019-05-23T05:42:41.355Z,42.96
2019-05-23T05:43:41.353Z,46.77
2019-05-23T05:44:41.413Z,52.69
2019-05-23T05:45:41.351Z,54.32
2019-05-23T05:46:41.347Z,47.85
2019-05-23T05:47:41.340Z,46.32
2019-05-23T05:48:41.337Z,52.81
2019-05-23T05:49:42.370Z,55.96
2019-05-23T05:50:41.330Z,55.11
2019-05-23T05:51:41.328Z,60.74
2019-05-23T05:52:41.329Z,61.79
2019-05-23T05:53:41.321Z,62.75
2019-05-23T05:54:41.318Z,64.85
2019-05-23T05:55:41.315Z,64.09
2019-05-23T05:56:41.311Z,62.59
2019-05-23T05:57:41.313Z,63.07
2019-05-23T05:58:41.310Z,63.26
2019-05-23T05:59:41.304Z,63.07
2019-05-23T06:00:41.300Z,62.30
2019-05-23T06:01:41.301Z,64.72
2019-05-23T06:02:41.293Z,65.58
2019-05-23T06:03:41.293Z,67.97
2019-05-23T06:04:41.291Z,68.74
2019-05-23T06:05:41.293Z,71.80
2019-05-23T06:06:41.284Z,70.27
2019-05-23T06:07:41.283Z,71.13
2019-05-23T06:08:41.278Z,70.65
2019-05-23T06:09:41.275Z,69.31
2019-05-23T06:10:41.279Z,68.64
2019-05-23T06:11:41.272Z,67.97
2019-05-23T06:12:41.278Z,69.21
2019-05-23T06:13:41.265Z,69.60
2019-05-23T06:14:41.265Z,69.50
2019-05-23T06:15:41.261Z,67.97
2019-05-23T06:16:41.259Z,70.27
2019-05-23T06:17:41.256Z,69.89
2019-05-23T06:18:41.263Z,70.56
2019-05-23T06:19:41.260Z,71.99
2019-05-23T06:20:41.249Z,72.02
2019-05-23T06:21:41.251Z,72.28
2019-05-23T06:22:41.245Z,72.60
2019-05-23T06:23:41.243Z,70.78
2019-05-23T06:24:48.954Z,70.97
2019-05-23T06:25:41.237Z,70.50
2019-05-23T06:26:41.235Z,70.50
2019-05-23T06:27:41.235Z,72.50
2019-05-23T06:28:41.241Z,72.02
2019-05-23T06:29:41.229Z,70.97
2019-05-23T06:30:41.231Z,72.12
2019-05-23T06:31:41.236Z,72.41
2019-05-23T06:32:41.224Z,74.41
2019-05-23T06:33:41.221Z,74.04
2019-05-23T06:34:41.218Z,73.17
2019-05-23T06:35:41.219Z,72.73
2019-05-23T06:36:41.216Z,72.92
2019-05-23T06:37:41.213Z,73.50
2019-05-23T06:38:41.213Z,73.02
2019-05-23T06:39:41.215Z,75.31
2019-05-23T06:40:41.209Z,75.41
2019-05-23T06:41:41.206Z,75.60
2019-05-23T06:42:41.217Z,75.70
2019-05-23T06:43:41.203Z,74.16
2019-05-23T06:44:41.200Z,75.41
2019-05-23T06:45:41.200Z,74.65
2019-05-23T06:46:41.200Z,75.22
2019-05-23T06:47:41.196Z,75.02
2019-05-23T06:48:45.572Z,75.26
2019-05-23T06:49:41.193Z,75.64
2019-05-23T06:50:41.194Z,75.83
2019-05-23T06:51:41.190Z,75.26
2019-05-23T06:52:41.191Z,77.75
2019-05-23T06:53:41.185Z,77.17
2019-05-23T06:54:41.192Z,76.31
2019-05-23T06:55:41.185Z,75.35
2019-05-23T06:56:41.269Z,75.93
2019-05-23T06:57:41.181Z,76.92
2019-05-23T06:58:41.180Z,77.65
2019-05-23T06:59:41.177Z,79.85
2019-05-23T07:00:41.182Z,77.94
2019-05-23T07:01:41.176Z,77.46
2019-05-23T07:02:41.179Z,77.21
2019-05-23T07:03:43.405Z,77.02
2019-05-23T07:04:41.172Z,79.22
2019-05-23T07:05:41.175Z,79.60
2019-05-23T07:06:41.172Z,80.27
2019-05-23T07:07:41.269Z,79.03
2019-05-23T07:08:41.168Z,77.88
2019-05-23T07:09:41.177Z,79.13
2019-05-23T07:10:41.178Z,80.85
2019-05-23T07:11:41.171Z,80.94
2019-05-23T07:12:41.164Z,81.43
2019-05-23T07:13:41.162Z,82.38
2019-05-23T07:14:41.166Z,81.23
2019-05-23T07:15:41.162Z,82.19
2019-05-23T07:16:41.160Z,82.09
2019-05-23T07:17:41.160Z,82.23
2019-05-23T07:18:41.158Z,82.62
2019-05-23T07:19:41.158Z,82.14
2019-05-23T07:20:41.161Z,82.62
2019-05-23T07:21:41.157Z,82.52
2019-05-23T07:22:41.185Z,82.32
2019-05-23T07:23:41.158Z,83.29
2019-05-23T07:24:56.972Z,83.09
2019-05-23T07:25:41.153Z,83.81
2019-05-23T07:26:41.153Z,83.23
2019-05-23T07:27:41.155Z,83.04
2019-05-23T07:28:41.155Z,83.91
2019-05-23T07:29:41.151Z,84.48
2019-05-23T07:30:41.151Z,83.33
2019-05-23T07:31:41.151Z,83.42
2019-05-23T07:32:41.169Z,83.14
2019-05-23T07:33:59.955Z,83.08
2019-05-23T07:34:41.151Z,82.89
2019-05-23T07:35:41.169Z,82.70
2019-05-23T07:36:41.151Z,82.70
2019-05-23T07:37:41.153Z,83.60
2019-05-23T07:38:41.151Z,83.64
2019-05-23T07:39:41.152Z,83.64
2019-05-23T07:40:41.153Z,82.43
2019-05-23T07:41:41.154Z,81.75
2019-05-23T07:42:41.157Z,79.81
2019-05-23T07:43:41.161Z,75.99
2019-05-23T07:44:48.407Z,73.62
2019-05-23T07:45:41.168Z,72.50
2019-05-23T07:46:41.170Z,69.80
2019-05-23T07:47:41.185Z,68.71
2019-05-23T07:48:41.179Z,68.42
2019-05-23T07:49:41.189Z,68.55
2019-05-23T07:50:41.202Z,66.52
2019-05-23T07:51:41.209Z,66.14
2019-05-23T07:52:41.205Z,66.52
2019-05-23T07:53:43.890Z,66.39
2019-05-23T07:55:41.233Z,65.85
2019-05-23T07:56:41.240Z,66.66
2019-05-23T07:57:41.340Z,65.59
2019-05-23T07:58:41.253Z,65.69
2019-05-23T07:59:41.262Z,65.88
2019-05-23T08:00:41.271Z,66.11
2019-05-23T08:01:41.280Z,64.37
2019-05-23T08:02:41.290Z,62.63
2019-05-23T08:03:41.301Z,62.57
2019-05-23T08:04:41.315Z,63.05
2019-05-23T08:05:41.322Z,62.44
2019-05-23T08:06:41.336Z,62.44
2019-05-23T08:07:41.354Z,62.66
2019-05-23T08:08:41.352Z,62.28
2019-05-23T08:09:41.365Z,62.08
2019-05-23T08:10:41.378Z,61.60
2019-05-23T08:11:41.391Z,61.89
2019-05-23T08:12:41.482Z,61.63
2019-05-23T08:13:41.421Z,61.66
2019-05-23T08:14:41.422Z,60.53
2019-05-23T08:15:41.439Z,59.98
2019-05-23T08:16:41.449Z,58.82
2019-05-23T08:17:41.461Z,57.95
2019-05-23T08:18:41.471Z,57.37
2019-05-23T08:19:49.724Z,58.02
2019-05-23T08:20:41.498Z,59.47
2019-05-23T08:21:41.514Z,59.01
2019-05-23T08:22:41.525Z,57.18
2019-05-23T08:23:41.537Z,57.28
2019-05-23T08:24:41.551Z,57.28
2019-05-23T08:25:41.564Z,56.72
2019-05-23T08:26:41.586Z,54.98
2019-05-23T08:27:41.592Z,53.45
2019-05-23T08:29:00.478Z,52.10
2019-05-23T08:29:41.619Z,52.49
2019-05-23T08:30:41.632Z,54.27
2019-05-23T08:31:41.650Z,55.07
2019-05-23T08:32:41.661Z,53.14
2019-05-23T08:33:41.675Z,53.31
2019-05-23T08:34:42.944Z,53.81
2019-05-23T08:35:41.705Z,53.43
2019-05-23T08:36:41.720Z,51.78
2019-05-23T08:37:41.735Z,51.90
2019-05-23T08:38:41.748Z,53.11
2019-05-23T08:39:41.768Z,52.34
2019-05-23T08:40:41.778Z,52.97
2019-05-23T08:41:41.791Z,51.64
2019-05-23T08:42:41.807Z,50.50
2019-05-23T08:43:41.823Z,49.82
2019-05-23T08:44:41.837Z,48.85
2019-05-23T08:45:41.854Z,48.57
2019-05-23T08:46:41.867Z,49.54
2019-05-23T08:47:41.882Z,48.95
2019-05-23T08:48:41.897Z,47.89
2019-05-23T08:49:41.931Z,47.86
2019-05-23T08:50:41.927Z,48.35
2019-05-23T08:51:41.953Z,47.67
2019-05-23T08:52:41.958Z,47.60
2019-05-23T08:53:41.974Z,46.89
2019-05-23T08:54:41.990Z,47.26
2019-05-23T08:55:42.019Z,47.24
2019-05-23T08:56:42.019Z,47.89
2019-05-23T08:57:42.047Z,48.47
2019-05-23T08:58:42.062Z,48.66
2019-05-23T08:59:42.067Z,48.37
2019-05-23T09:00:42.081Z,48.54
2019-05-23T09:01:42.101Z,50.07
2019-05-23T09:02:42.111Z,50.16
2019-05-23T09:03:42.127Z,50.12
2019-05-23T09:04:59.718Z,49.63
2019-05-23T09:05:42.158Z,49.95
2019-05-23T09:06:42.174Z,49.77
2019-05-23T09:07:42.194Z,48.97
2019-05-23T09:08:42.208Z,49.10
2019-05-23T09:09:42.220Z,48.61
2019-05-23T09:10:42.242Z,47.67
2019-05-23T09:11:42.257Z,46.22
2019-05-23T09:12:42.267Z,46.29
2019-05-23T09:13:42.286Z,46.36
2019-05-23T09:14:42.298Z,46.09
2019-05-23T09:15:42.401Z,45.81
2019-05-23T09:16:42.350Z,46.60
2019-05-23T09:17:52.182Z,45.65
2019-05-23T09:18:42.359Z,45.47
2019-05-23T09:19:42.376Z,45.73
2019-05-23T09:20:42.390Z,45.85
2019-05-23T09:21:42.407Z,45.37
2019-05-23T09:22:42.423Z,45.13
2019-05-23T09:23:42.440Z,44.74
2019-05-23T09:24:42.453Z,44.43
2019-05-23T09:25:42.469Z,45.49
2019-05-23T09:26:42.484Z,45.68
2019-05-23T09:27:42.501Z,45.90
2019-05-23T09:28:42.513Z,45.83
2019-05-23T09:29:42.532Z,45.65
2019-05-23T09:30:42.548Z,45.64
2019-05-23T09:31:42.561Z,45.75
2019-05-23T09:32:42.577Z,44.74
2019-05-23T09:33:42.590Z,46.29
2019-05-23T09:34:42.616Z,46.58
2019-05-23T09:35:42.623Z,46.09
2019-05-23T09:36:42.637Z,45.83
2019-05-23T09:37:42.653Z,45.27
2019-05-23T09:38:42.668Z,45.83
2019-05-23T09:39:42.685Z,46.39
2019-05-23T09:40:42.697Z,47.28
2019-05-23T09:41:42.715Z,47.06
2019-05-23T09:42:42.733Z,47.28
2019-05-23T09:43:42.744Z,47.69
2019-05-23T09:44:42.761Z,46.33
2019-05-23T09:45:42.778Z,45.64
2019-05-23T09:46:42.789Z,45.73
2019-05-23T09:47:42.805Z,45.40
2019-05-23T09:48:42.818Z,45.37
2019-05-23T09:49:53.726Z,45.95
2019-05-23T09:50:42.848Z,46.00
2019-05-23T09:51:42.864Z,44.86
2019-05-23T09:52:42.879Z,44.10
2019-05-23T09:53:47.060Z,43.93
2019-05-23T09:54:42.909Z,43.82
2019-05-23T09:55:42.923Z,43.79
2019-05-23T09:56:42.937Z,43.68
2019-05-23T09:57:42.953Z,44.45
2019-05-23T09:58:42.968Z,44.18
2019-05-23T09:59:42.983Z,43.79
2019-05-23T10:00:42.996Z,43.62
2019-05-23T10:01:43.038Z,41.49
2019-05-23T10:02:43.026Z,40.83
2019-05-23T10:03:43.040Z,40.92
2019-05-23T10:04:43.059Z,40.52
2019-05-23T10:05:44.186Z,41.64
2019-05-23T10:06:46.002Z,43.02
2019-05-23T10:07:43.099Z,42.14
2019-05-23T10:08:43.113Z,41.39
2019-05-23T10:09:43.128Z,41.97
2019-05-23T10:10:43.161Z,41.68
2019-05-23T10:11:43.637Z,41.83
2019-05-23T10:12:43.177Z,42.14
2019-05-23T10:13:43.185Z,42.05
2019-05-23T10:14:43.199Z,42.34
2019-05-23T10:15:43.215Z,42.67
2019-05-23T10:16:43.229Z,41.82
2019-05-23T10:17:43.243Z,41.14
2019-05-23T10:18:43.265Z,41.82
2019-05-23T10:19:43.271Z,41.55
2019-05-23T10:20:43.283Z,40.66
2019-05-23T10:21:43.299Z,40.95
2019-05-23T10:22:43.559Z,40.00
2019-05-23T10:23:43.336Z,40.17
2019-05-23T10:24:43.344Z,41.05
2019-05-23T10:25:43.358Z,40.81
2019-05-23T10:26:43.371Z,42.00
2019-05-23T10:27:43.383Z,42.80
2019-05-23T10:28:43.407Z,43.60
2019-05-23T10:29:43.411Z,42.85
2019-05-23T10:30:43.425Z,43.19
2019-05-23T10:31:43.439Z,43.48
2019-05-23T10:32:43.452Z,43.87
2019-05-23T10:33:43.467Z,43.58
2019-05-23T10:34:43.493Z,42.63
2019-05-23T10:35:59.124Z,42.44
2019-05-23T10:36:43.506Z,42.07
2019-05-23T10:37:43.520Z,42.02
2019-05-23T10:38:43.536Z,42.07
2019-05-23T10:39:43.556Z,41.37
2019-05-23T10:40:43.575Z,42.44
2019-05-23T10:41:43.575Z,43.50
2019-05-23T10:42:43.590Z,42.46
2019-05-23T10:43:43.604Z,40.81
2019-05-23T10:44:44.976Z,40.61
2019-05-23T10:45:43.627Z,41.00
2019-05-23T10:46:43.641Z,41.88
2019-05-23T10:47:43.658Z,40.99
2019-05-23T10:48:43.670Z,41.88
2019-05-23T10:49:43.907Z,41.22
2019-05-23T10:50:45.150Z,40.05
2019-05-23T10:51:43.706Z,40.42
2019-05-23T10:52:43.725Z,40.23
2019-05-23T10:53:43.732Z,40.13
2019-05-23T10:54:43.745Z,40.99
2019-05-23T10:55:43.760Z,41.86
2019-05-23T10:56:43.772Z,41.66
2019-05-23T10:57:43.786Z,41.83
2019-05-23T10:58:43.801Z,42.80
2019-05-23T10:59:43.808Z,42.82
2019-05-23T11:00:43.822Z,42.05
2019-05-23T11:01:43.834Z,41.74
2019-05-23T11:02:43.970Z,41.66
2019-05-23T11:03:43.859Z,42.14
2019-05-23T11:04:43.870Z,42.32
2019-05-23T11:05:43.883Z,43.19
2019-05-23T11:06:43.895Z,43.27
2019-05-23T11:07:43.919Z,44.13
2019-05-23T11:08:43.923Z,43.85
2019-05-23T11:09:43.935Z,43.54
2019-05-23T11:10:43.943Z,44.60
2019-05-23T11:11:43.968Z,45.54
2019-05-23T11:12:43.965Z,46.39
2019-05-23T11:13:44.308Z,46.78
2019-05-23T11:14:43.990Z,47.33
2019-05-23T11:15:43.999Z,47.05
2019-05-23T11:16:44.011Z,47.33
2019-05-23T11:17:44.021Z,47.58
2019-05-23T11:18:44.034Z,46.03
2019-05-23T11:19:44.046Z,46.00
2019-05-23T11:20:44.049Z,46.30
2019-05-23T11:21:44.082Z,46.30
2019-05-23T11:22:44.076Z,46.27
2019-05-23T11:23:44.088Z,46.10
2019-05-23T11:24:44.090Z,46.10
2019-05-23T11:25:44.101Z,46.37
2019-05-23T11:26:44.108Z,46.27
2019-05-23T11:27:44.248Z,46.78
2019-05-23T11:28:44.127Z,46.00
2019-05-23T11:29:44.138Z,45.50
2019-05-23T11:30:44.145Z,45.91
2019-05-23T11:31:44.155Z,46.08
2019-05-23T11:32:44.163Z,46.20
2019-05-23T11:33:44.171Z,47.45
2019-05-23T11:34:44.183Z,45.72
2019-05-23T11:35:44.214Z,46.08
2019-05-23T11:36:44.197Z,46.08
2019-05-23T11:37:44.206Z,46.37
2019-05-23T11:38:44.211Z,45.89
2019-05-23T11:39:50.006Z,44.80
2019-05-23T11:40:44.227Z,44.80
2019-05-23T11:41:44.237Z,45.67
2019-05-23T11:42:44.243Z,46.17
2019-05-23T11:43:44.253Z,45.69
2019-05-23T11:44:44.261Z,45.21
2019-05-23T11:45:46.076Z,45.11
2019-05-23T11:46:44.277Z,45.40
2019-05-23T11:47:44.281Z,45.79
2019-05-23T11:48:44.287Z,45.72
2019-05-23T11:49:45.073Z,45.89
2019-05-23T11:50:44.309Z,46.39
2019-05-23T11:51:44.309Z,46.68
2019-05-23T11:52:44.316Z,47.28
2019-05-23T11:53:47.057Z,46.20
2019-05-23T11:54:44.344Z,46.51
2019-05-23T11:55:44.347Z,46.58
2019-05-23T11:56:44.345Z,46.27
2019-05-23T11:57:44.356Z,46.49
2019-05-23T11:58:44.368Z,46.58
2019-05-23T11:59:44.365Z,46.20
2019-05-23T12:00:44.399Z,46.39
2019-05-23T12:01:44.380Z,46.51
2019-05-23T12:02:44.456Z,46.10
2019-05-23T12:03:44.393Z,46.22
2019-05-23T12:04:44.479Z,45.23
2019-05-23T12:05:44.405Z,45.50
2019-05-23T12:06:54.727Z,46.20
2019-05-23T12:07:44.420Z,46.49
2019-05-23T12:08:44.425Z,46.12
2019-05-23T12:09:44.440Z,45.69
2019-05-23T12:10:44.442Z,46.37
2019-05-23T12:11:44.471Z,46.75
2019-05-23T12:12:44.456Z,47.43
2019-05-23T12:13:44.459Z,46.75
2019-05-23T12:14:44.469Z,47.43
2019-05-23T12:15:44.475Z,47.16
2019-05-23T12:16:44.478Z,47.16
2019-05-23T12:17:44.498Z,48.13
2019-05-23T12:18:44.499Z,47.58
2019-05-23T12:19:44.498Z,47.86
2019-05-23T12:20:44.504Z,47.48
2019-05-23T12:21:44.513Z,47.67
2019-05-23T12:22:44.546Z,48.54
2019-05-23T12:23:44.528Z,47.89
2019-05-23T12:24:44.534Z,47.11
2019-05-23T12:25:44.538Z,48.08
2019-05-23T12:26:44.544Z,47.50
2019-05-23T12:27:44.576Z,47.19
2019-05-23T12:28:44.557Z,47.19
2019-05-23T12:29:44.616Z,46.34
2019-05-23T12:30:44.571Z,46.51
2019-05-23T12:31:48.831Z,46.70
2019-05-23T12:32:44.584Z,46.70
2019-05-23T12:33:44.590Z,46.56
2019-05-23T12:34:44.609Z,46.47
2019-05-23T12:35:44.602Z,46.75
2019-05-23T12:36:44.612Z,47.16
2019-05-23T12:37:44.615Z,46.97
2019-05-23T12:38:44.620Z,47.00
2019-05-23T12:39:44.631Z,47.19
2019-05-23T12:40:44.634Z,46.53
2019-05-23T12:41:44.640Z,46.53
2019-05-23T12:42:44.647Z,46.53
2019-05-23T12:43:44.651Z,45.66
2019-05-23T12:44:44.662Z,45.57
2019-05-23T12:45:44.664Z,44.19
2019-05-23T12:46:44.670Z,43.71
2019-05-23T12:47:44.691Z,44.17
2019-05-23T12:48:44.682Z,44.48
2019-05-23T12:49:44.691Z,44.65
2019-05-23T12:50:44.704Z,45.42
2019-05-23T12:51:44.702Z,45.64
2019-05-23T12:52:44.707Z,45.74
2019-05-23T12:53:44.716Z,45.64
2019-05-23T12:54:44.724Z,45.45
2019-05-23T12:55:44.729Z,45.95
2019-05-23T12:56:48.549Z,44.70